Home > Products > Valid Products > MTR

000
SAUS44 KMEG 070054
MTRTUP
METAR KTUP 070053Z 00000KT 10SM CLR 02/M07 A3049 RMK AO2 SLP329
T00221067





000
SAUS44 KMEG 062354
MTRTUP
METAR KTUP 062353Z 00000KT 10SM CLR 04/M09 A3048 RMK AO2 SLP325
T00441089 10061 20006 55004





000
SAUS44 KMEG 062354
MTRTUP
METAR KTUP 062353Z 00000KT 10SM CLR 04/M09 A3048 RMK AO2 SLP325
T00441089 10061 20006 55004





000
SAUS44 KMEG 062254
MTRTUP
METAR KTUP 062253Z 02004KT 10SM CLR 06/M10 A3048 RMK AO2 SLP323
T00611100





000
SAUS44 KMEG 062254
MTRTUP
METAR KTUP 062253Z 02004KT 10SM CLR 06/M10 A3048 RMK AO2 SLP323
T00611100





000
SAUS44 KMEG 062154
MTRTUP
METAR KTUP 062153Z 05007KT 10SM CLR 06/M09 A3049 RMK AO2 SLP327
T00611094





000
SAUS44 KMEG 062154
MTRTUP
METAR KTUP 062153Z 05007KT 10SM CLR 06/M09 A3049 RMK AO2 SLP327
T00611094





000
SAUS44 KMEG 062054
MTRTUP
METAR KTUP 062053Z 06005KT 10SM CLR 05/M10 A3049 RMK AO2 SLP329
T00501100 56027





000
SAUS44 KMEG 062054
MTRTUP
METAR KTUP 062053Z 06005KT 10SM CLR 05/M10 A3049 RMK AO2 SLP329
T00501100 56027





000
SAUS44 KMEG 061954
MTRTUP
METAR KTUP 061953Z VRB05KT 10SM CLR 04/M09 A3051 RMK AO2 SLP334
T00391094





000
SAUS44 KMEG 061854
MTRTUP
METAR KTUP 061853Z 04005KT 10SM CLR 03/M09 A3054 RMK AO2 SLP345
T00281094





000
SAUS44 KMEG 061854
MTRTUP
METAR KTUP 061853Z 04005KT 10SM CLR 03/M09 A3054 RMK AO2 SLP345
T00281094





000
SAUS44 KMEG 061754
MTRTUP
METAR KTUP 061753Z 05008KT 10SM CLR 01/M10 A3057 RMK AO2 SLP356
T00111100 10011 21078 58008





000
SAUS44 KMEG 061754
MTRTUP
METAR KTUP 061753Z 05008KT 10SM CLR 01/M10 A3057 RMK AO2 SLP356
T00111100 10011 21078 58008





000
SAUS44 KMEG 061654
MTRTUP
METAR KTUP 061653Z 02010KT 10SM CLR M01/M11 A3061 RMK AO2 SLP367
T10111106





000
SAUS44 KMEG 061654
MTRTUP
METAR KTUP 061653Z 02010KT 10SM CLR M01/M11 A3061 RMK AO2 SLP367
T10111106





000
SAUS44 KMEG 061554
MTRTUP
METAR KTUP 061553Z 04005KT 10SM CLR M02/M11 A3060 RMK AO2 SLP364
T10221106





000
SAUS44 KMEG 061454
MTRTUP
METAR KTUP 061453Z 06006KT 10SM CLR M04/M11 A3060 RMK AO2 SLP365
T10391111 51009





000
SAUS44 KMEG 061354
MTRTUP
METAR KTUP 061353Z 04007KT 10SM CLR M06/M12 A3060 RMK AO2 SLP364
T10611117





000
SAUS44 KMEG 061254
MTRTUP
METAR KTUP 061253Z 04008KT 10SM CLR M07/M12 A3058 RMK AO2 SLP357
T10721122





000
SAUS44 KMEG 061254
MTRTUP
METAR KTUP 061253Z 04008KT 10SM CLR M07/M12 A3058 RMK AO2 SLP357
T10721122





000
SAUS44 KMEG 061154
MTRTUP
METAR KTUP 061153Z 05008KT 10SM CLR M08/M13 A3057 RMK AO2 SLP355
70004 T10781128 11050 21078 53009





000
SAUS44 KMEG 061154
MTRTUP
METAR KTUP 061153Z 05008KT 10SM CLR M08/M13 A3057 RMK AO2 SLP355
70004 T10781128 11050 21078 53009





000
SAUS44 KMEG 061054
MTRTUP
METAR KTUP 061053Z AUTO 05010KT 10SM CLR M07/M12 A3056 RMK AO2
SLP350 T10721122





000
SAUS44 KMEG 061054
MTRTUP
METAR KTUP 061053Z AUTO 05010KT 10SM CLR M07/M12 A3056 RMK AO2
SLP350 T10721122





000
SAUS44 KMEG 060954
MTRTUP
METAR KTUP 060953Z AUTO 05007KT 10SM CLR M07/M12 A3054 RMK AO2
SLP346 T10721122





000
SAUS44 KMEG 060854
MTRTUP
METAR KTUP 060853Z AUTO 05008KT 10SM CLR M07/M12 A3054 RMK AO2
SLP346 T10671117 50001





000
SAUS44 KMEG 060754
MTRTUP
METAR KTUP 060753Z AUTO 05007KT 10SM CLR M07/M11 A3055 RMK AO2
SLP349 T10671111





000
SAUS44 KMEG 060654
MTRTUP
METAR KTUP 060653Z AUTO 03008KT 10SM CLR M06/M11 A3055 RMK AO2
SLP349 T10611111





000
SAUS44 KMEG 060554
MTRTUP
METAR KTUP 060553Z AUTO 03011KT 10SM CLR M05/M11 A3054 RMK AO2
SLP345 T10501106 11011 21050 400111050 58000





000
SAUS44 KMEG 060554
MTRTUP
METAR KTUP 060553Z AUTO 03011KT 10SM CLR M05/M11 A3054 RMK AO2
SLP345 T10501106 11011 21050 400111050 58000





000
SAUS44 KMEG 060454
MTRTUP
METAR KTUP 060453Z AUTO 02010KT 10SM CLR M05/M11 A3054 RMK AO2
SLP347 T10501106





000
SAUS44 KMEG 060454
MTRTUP
METAR KTUP 060453Z AUTO 02010KT 10SM CLR M05/M11 A3054 RMK AO2
SLP347 T10501106





000
SAUS44 KMEG 060354
MTRTUP
METAR KTUP 060353Z 01008KT 10SM CLR M04/M11 A3055 RMK AO2 SLP350
T10441106





000
SAUS44 KMEG 060354
MTRTUP
METAR KTUP 060353Z 01008KT 10SM CLR M04/M11 A3055 RMK AO2 SLP350
T10441106





000
SAUS44 KMEG 060254
MTRTUP
METAR KTUP 060253Z 01008KT 10SM CLR M03/M11 A3054 RMK AO2 SLP345
T10331106 51018





000
SAUS44 KMEG 060254
MTRTUP
METAR KTUP 060253Z 01008KT 10SM CLR M03/M11 A3054 RMK AO2 SLP345
T10331106 51018





000
SAUS44 KMEG 060154
MTRTUP
METAR KTUP 060153Z 02010KT 10SM CLR M03/M11 A3052 RMK AO2 SLP339
T10281106





000
SAUS44 KMEG 060154
MTRTUP
METAR KTUP 060153Z 02010KT 10SM CLR M03/M11 A3052 RMK AO2 SLP339
T10281106





000
SAUS44 KMEG 060054
MTRTUP
METAR KTUP 060053Z 01012KT 10SM CLR M02/M10 A3051 RMK AO2 SLP333
T10221100





000
SAUS44 KMEG 060054
MTRTUP
METAR KTUP 060053Z 01012KT 10SM CLR M02/M10 A3051 RMK AO2 SLP333
T10221100





000
SAUS44 KMEG 052354
MTRTUP
METAR KTUP 052353Z AUTO 01012KT 10SM CLR M01/M10 A3049 RMK AO2
SLP327 T10111100 10000 21033 53017





000
SAUS44 KMEG 052354
MTRTUP
METAR KTUP 052353Z AUTO 01012KT 10SM CLR M01/M10 A3049 RMK AO2
SLP327 T10111100 10000 21033 53017





000
SAUS44 KMEG 052254
MTRTUP
METAR KTUP 052253Z AUTO 02012KT 10SM CLR 00/M09 A3046 RMK AO2 SLP318
T00001094





000
SAUS44 KMEG 052254
MTRTUP
METAR KTUP 052253Z AUTO 02012KT 10SM CLR 00/M09 A3046 RMK AO2 SLP318
T00001094





000
SAUS44 KMEG 052154
MTRTUP
METAR KTUP 052153Z AUTO 03014KT 10SM CLR 00/M09 A3044 RMK AO2 SLP312
T00001089





000
SAUS44 KMEG 052054
MTRTUP
METAR KTUP 052053Z AUTO 03018G21KT 10SM CLR M01/M09 A3043 RMK AO2
SLP308 T10111089 56004





000
SAUS44 KMEG 051954
MTRTUP
METAR KTUP 051953Z 01013G21KT 10SM CLR M02/M07 A3044 RMK AO2 SLP308
T10171072





000
SAUS44 KMEG 051954
MTRTUP
METAR KTUP 051953Z 01013G21KT 10SM CLR M02/M07 A3044 RMK AO2 SLP308
T10171072





000
SAUS44 KMEG 051855
MTRTUP
METAR KTUP 051853Z 02016KT 10SM FEW021 SCT065 M03/M08 A3043 RMK AO2
SLP306 T10281078





000
SAUS44 KMEG 051801
MTRTUP
SPECI KTUP 051800Z 02014KT 10SM SCT021 OVC065 M03/M07 A3044 RMK AO2
T10281072





000
SAUS44 KMEG 051801
MTRTUP
SPECI KTUP 051800Z 02014KT 10SM SCT021 OVC065 M03/M07 A3044 RMK AO2
T10281072





000
SAUS44 KMEG 051754
MTRTUP
METAR KTUP 051753Z 02013G23KT 10SM BKN021 OVC065 M03/M07 A3045 RMK
AO2 SLP312 60004 T10331072 11033 21044 51042





000
SAUS44 KMEG 051754
MTRTUP
METAR KTUP 051753Z 02013G23KT 10SM BKN021 OVC065 M03/M07 A3045 RMK
AO2 SLP312 60004 T10331072 11033 21044 51042





000
SAUS44 KMEG 051654
MTRTUP
METAR KTUP 051653Z 01014G26KT 10SM OVC020 M04/M07 A3041 RMK AO2 PK
WND 01026/1647 SLP298 T10391072





000
SAUS44 KMEG 051654
MTRTUP
METAR KTUP 051653Z 01014G26KT 10SM OVC020 M04/M07 A3041 RMK AO2 PK
WND 01026/1647 SLP298 T10391072





000
SAUS44 KMEG 051554
MTRTUP
METAR KTUP 051553Z 01014G22KT 10SM BKN019 OVC037 M03/M07 A3040 RMK
AO2 PK WND 04028/1455 SLP295 T10331072





000
SAUS44 KMEG 051554
MTRTUP
METAR KTUP 051553Z 01014G22KT 10SM BKN019 OVC037 M03/M07 A3040 RMK
AO2 PK WND 04028/1455 SLP295 T10331072





000
SAUS44 KMEG 051508
MTRTUP
SPECI KTUP 051507Z 01017G24KT 10SM BKN019 OVC037 M03/M07 A3036 RMK
AO2 PK WND 04028/1455 T10331067





000
SAUS44 KMEG 051454
MTRTUP
METAR KTUP 051453Z 03018G27KT 10SM SCT017 OVC037 M03/M07 A3032 RMK
AO2 PK WND 04029/1440 SLP270 60004 T10331067 51040





000
SAUS44 KMEG 051441
MTRTUP
SPECI KTUP 051440Z 04022G29KT 10SM SCT016 OVC037 M04/M07 A3031 RMK
AO2 PK WND 04029/1440 T10391067





000
SAUS44 KMEG 051441
MTRTUP
SPECI KTUP 051440Z 04022G29KT 10SM SCT016 OVC037 M04/M07 A3031 RMK
AO2 PK WND 04029/1440 T10391067





000
SAUS44 KMEG 051428
MTRTUP
SPECI KTUP 051427Z 03022G27KT 10SM BKN016 OVC036 M03/M07 A3031 RMK
AO2 PK WND 02027/1427 T10331067





000
SAUS44 KMEG 051428
MTRTUP
SPECI KTUP 051427Z 03022G27KT 10SM BKN016 OVC036 M03/M07 A3031 RMK
AO2 PK WND 02027/1427 T10331067





000
SAUS44 KMEG 051354
MTRTUP
METAR KTUP 051353Z 03022G29KT 6SM HZ FEW014 BKN031 OVC065 M04/M07
A3028 RMK AO2 PK WND 04029/1349 UPB26E45 PRESFR SLP255 P0000
T10391067





000
SAUS44 KMEG 051325
MTRTUP
SPECI KTUP 051324Z 02018G24KT 10SM SCT020 BKN031 OVC080 M04/M07
A3032 RMK AO2 T10391067





000
SAUS44 KMEG 051325
MTRTUP
SPECI KTUP 051324Z 02018G24KT 10SM SCT020 BKN031 OVC080 M04/M07
A3032 RMK AO2 T10391067





000
SAUS44 KMEG 051254
MTRTUP
METAR KTUP 051253Z 36014G20KT 4SM BR FEW013 BKN023 OVC075 M04/M06
A3028 RMK AO2 PK WND 02026/1211 UPB00E51SNE00B09E19 SLP255 P0004
T10391061





000
SAUS44 KMEG 051254
MTRTUP
METAR KTUP 051253Z 36014G20KT 4SM BR FEW013 BKN023 OVC075 M04/M06
A3028 RMK AO2 PK WND 02026/1211 UPB00E51SNE00B09E19 SLP255 P0004
T10391061





000
SAUS44 KMEG 051154
MTRTUP
METAR KTUP 051153Z 02013G20KT 3SM -SN BR FEW011 BKN043 OVC070
M03/M06 A3020 RMK AO2 PK WND 36030/1134 UPB08E10B27E39SNE08B10E27B39
SLP229 P0008 60035 70122 T10331056 10011 21033 51038





000
SAUS44 KMEG 051142
MTRTUP
SPECI KTUP 051140Z 02015G30KT 3SM -SN BR FEW012 BKN021 OVC037
M03/M06 A3019 RMK AO2 PK WND 36030/1134 UPB08E10B27E39SNE08B10E27B39
P0006 T10331056





000
SAUS44 KMEG 051142
MTRTUP
SPECI KTUP 051140Z 02015G30KT 3SM -SN BR FEW012 BKN021 OVC037
M03/M06 A3019 RMK AO2 PK WND 36030/1134 UPB08E10B27E39SNE08B10E27B39
P0006 T10331056





000
SAUS44 KMEG 051123
MTRTUP
SPECI KTUP 051122Z AUTO 02016G28KT 2SM -SN BR FEW008 BKN019 OVC024
M03/M05 A3017 RMK AO2 PK WND 01028/1118 UPB08E10SNE08B10 P0003
T10281050





000
SAUS44 KMEG 051116
MTRTUP
SPECI KTUP 051115Z AUTO 02017G27KT 2 1/2SM -SN BR SCT011 OVC020
M03/M05 A3017 RMK AO2 PK WND 03027/1113 UPB08E10SNE08B10 P0001
T10281050





000
SAUS44 KMEG 051116
MTRTUP
SPECI KTUP 051115Z AUTO 02017G27KT 2 1/2SM -SN BR SCT011 OVC020
M03/M05 A3017 RMK AO2 PK WND 03027/1113 UPB08E10SNE08B10 P0001
T10281050





000
SAUS44 KMEG 051106
MTRTUP
SPECI KTUP 051105Z AUTO 01015G23KT 3SM -SN BR SCT009 BKN014 OVC043
M03/M04 A3018 RMK AO2 PRESRR P0000 T10281044





000
SAUS44 KMEG 051106
MTRTUP
SPECI KTUP 051105Z AUTO 01015G23KT 3SM -SN BR SCT009 BKN014 OVC043
M03/M04 A3018 RMK AO2 PRESRR P0000 T10281044





000
SAUS44 KMEG 051058
MTRTUP
SPECI KTUP 051057Z AUTO 01015G21KT 2 1/2SM -SN BR BKN009 OVC036
M02/M04 A3015 RMK AO2 PRESRR P0000 T10221044





000
SAUS44 KMEG 051058
MTRTUP
SPECI KTUP 051057Z AUTO 01015G21KT 2 1/2SM -SN BR BKN009 OVC036
M02/M04 A3015 RMK AO2 PRESRR P0000 T10221044





000
SAUS44 KMEG 051054
MTRTUP
METAR KTUP 051053Z AUTO 01014G21KT 2 1/2SM -SN BR SCT009 OVC034
M02/M04 A3015 RMK AO2 PK WND 04029/0956 UPB18E31SNE18B31 SLP211
P0013 T10221039





000
SAUS44 KMEG 051054
MTRTUP
METAR KTUP 051053Z AUTO 01014G21KT 2 1/2SM -SN BR SCT009 OVC034
M02/M04 A3015 RMK AO2 PK WND 04029/0956 UPB18E31SNE18B31 SLP211
P0013 T10221039





000
SAUS44 KMEG 051045
MTRTUP
SPECI KTUP 051044Z AUTO 03018KT 4SM -SN BR SCT009 SCT020 OVC029
M02/M04 A3012 RMK AO2 PK WND 04029/0956 UPB18E31SNE18B31 P0013
T10221039





000
SAUS44 KMEG 051038
MTRTUP
SPECI KTUP 051037Z AUTO 03017G21KT 2 1/2SM -SN BR FEW007 SCT011
OVC026 M02/M04 A3012 RMK AO2 PK WND 04029/0956 UPB18E31SNE18B31
P0013 T10221039





000
SAUS44 KMEG 051016
MTRTUP
SPECI KTUP 051015Z AUTO 02014G19KT 1 1/2SM -SN BR SCT007 OVC015
M02/M04 A3018 RMK AO2 PK WND 04029/0956 P0006 T10171039





000
SAUS44 KMEG 051016
MTRTUP
SPECI KTUP 051015Z AUTO 02014G19KT 1 1/2SM -SN BR SCT007 OVC015
M02/M04 A3018 RMK AO2 PK WND 04029/0956 P0006 T10171039





000
SAUS44 KMEG 050954
MTRTUP
METAR KTUP 050953Z AUTO 03018G28KT 2 1/2SM -SN BR FEW006 BKN010
OVC027 M02/M04 A3009 RMK AO2 PK WND 03030/0856
UPB17E41SNE17B18E22B26E27B41 SLP190 P0002 T10171039





000
SAUS44 KMEG 050945
MTRTUP
SPECI KTUP 050944Z AUTO 03017G26KT 3SM -SN BR BKN008 OVC027 M02/M04
A3010 RMK AO2 PK WND 03030/0856 UPB17E41SNE17B18E22B26E27B41 P0002
T10171039





000
SAUS44 KMEG 050940
MTRTUP
SPECI KTUP 050939Z AUTO 04022G26KT 3SM UP BR SCT008 OVC027 M02/M03
A3009 RMK AO2 PK WND 03030/0856 UPB17SNE17B18E22B26E27 P0001
T10171033





000
SAUS44 KMEG 050940
MTRTUP
SPECI KTUP 050939Z AUTO 04022G26KT 3SM UP BR SCT008 OVC027 M02/M03
A3009 RMK AO2 PK WND 03030/0856 UPB17SNE17B18E22B26E27 P0001
T10171033





000
SAUS44 KMEG 050918
MTRTUP
SPECI KTUP 050917Z AUTO 03021G25KT 2SM UP BR SCT007 SCT013 OVC018
M02/M03 A3009 RMK AO2 PK WND 03030/0856 UPB17SNE17 P0001 T10171033





000
SAUS44 KMEG 050854
MTRTUP
METAR KTUP 050853Z AUTO 03016KT 1 1/2SM -SN BR SCT008 BKN013 OVC020
M01/M03 A3010 RMK AO2 PK WND 03031/0830 UPB06E08SNE06B08 SLP193
P0008 60012 T10111028 51013





000
SAUS44 KMEG 050854
MTRTUP
METAR KTUP 050853Z AUTO 03016KT 1 1/2SM -SN BR SCT008 BKN013 OVC020
M01/M03 A3010 RMK AO2 PK WND 03031/0830 UPB06E08SNE06B08 SLP193
P0008 60012 T10111028 51013





000
SAUS44 KMEG 050852
MTRTUP
SPECI KTUP 050851Z AUTO 03019G28KT 1 3/4SM -SN BR FEW008 BKN013
OVC020 M01/M03 A3010 RMK AO2 PK WND 03031/0830 UPB06E08SNE06B08
P0008





000
SAUS44 KMEG 050852
MTRTUP
SPECI KTUP 050851Z AUTO 03019G28KT 1 3/4SM -SN BR FEW008 BKN013
OVC020 M01/M03 A3010 RMK AO2 PK WND 03031/0830 UPB06E08SNE06B08
P0008





000
SAUS44 KMEG 050837
MTRTUP
SPECI KTUP 050835Z AUTO 04023G31KT 2 1/2SM -SN BR SCT011 OVC019
M01/M03 A3008 RMK AO2 PK WND 03031/0830 UPB06E08SNE06B08 P0003
T10061028





000
SAUS44 KMEG 050754
MTRTUP
METAR KTUP 050753Z AUTO 03021G27KT 4SM -SN BR SCT008 OVC014 00/M02
A3010 RMK AO2 PK WND 04027/0749 UPB0658E02SNB02E40B47 SLP190 P0003
T00001022





000
SAUS44 KMEG 050744
MTRTUP
SPECI KTUP 050743Z AUTO 04020G26KT 7SM SCT009 BKN013 OVC019 00/M02
A3011 RMK AO2 PK WND 04026/0736 UPB0658E02SNB02E40 P0003 T00001017





000
SAUS44 KMEG 050744
MTRTUP
SPECI KTUP 050743Z AUTO 04020G26KT 7SM SCT009 BKN013 OVC019 00/M02
A3011 RMK AO2 PK WND 04026/0736 UPB0658E02SNB02E40 P0003 T00001017





000
SAUS44 KMEG 050730
MTRTUP
SPECI KTUP 050728Z AUTO 04018G24KT 3SM -SN BR SCT009 OVC018 01/M02
A3009 RMK AO2 UPB0658E02SNB02 P0002 T00061017





000
SAUS44 KMEG 050730
MTRTUP
SPECI KTUP 050728Z AUTO 04018G24KT 3SM -SN BR SCT009 OVC018 01/M02
A3009 RMK AO2 UPB0658E02SNB02 P0002 T00061017





000
SAUS44 KMEG 050654
MTRTUP
METAR KTUP 050653Z AUTO 03016KT 9SM OVC012 01/M01 A3009 RMK AO2 PK
WND 06026/0622 UPE0551 SLP188 P0001 T00111011





000
SAUS44 KMEG 050654
MTRTUP
METAR KTUP 050653Z AUTO 03016KT 9SM OVC012 01/M01 A3009 RMK AO2 PK
WND 06026/0622 UPE0551 SLP188 P0001 T00111011





000
SAUS44 KMEG 050627
MTRTUP
SPECI KTUP 050625Z AUTO 03019G26KT 10SM OVC013 01/M01 A3008 RMK AO2
PK WND 06026/0622 UPE0551 P0001 T00111011





000
SAUS44 KMEG 050627
MTRTUP
SPECI KTUP 050625Z AUTO 03019G26KT 10SM OVC013 01/M01 A3008 RMK AO2
PK WND 06026/0622 UPE0551 P0001 T00111011





000
SAUS44 KMEG 050549
MTRTUP
METAR KTUP 050548Z AUTO 04019G26KT 9SM UP FEW009 BKN018 OVC030
01/M01 A3006 RMK AO2 PK WND 03027/0537 RAB0457E32UPB48SNB06E14B32E48
SLP179 P0006 60026 T00111011 10050 20011 402390011 50002





000
SAUS44 KMEG 050549
MTRTUP
METAR KTUP 050548Z AUTO 04019G26KT 9SM UP FEW009 BKN018 OVC030
01/M01 A3006 RMK AO2 PK WND 03027/0537 RAB0457E32UPB48SNB06E14B32E48
SLP179 P0006 60026 T00111011 10050 20011 402390011 50002





000
SAUS44 KMEG 050454
MTRTUP
METAR KTUP 050453Z AUTO 04018G24KT 10SM OVC013 02/M01 A3007 RMK AO2
PK WND 03028/0431 UPB31E47 SLP180 P0000 T00221006





000
SAUS44 KMEG 050454
MTRTUP
METAR KTUP 050453Z AUTO 04018G24KT 10SM OVC013 02/M01 A3007 RMK AO2
PK WND 03028/0431 UPB31E47 SLP180 P0000 T00221006





000
SAUS44 KMEG 050355
MTRTUP
METAR KTUP 050353Z 04017KT 10SM OVC011 03/01 A3006 RMK AO2 PK WND
04028/0343 RAB0255E11B20E24UPB35E37SNB11E35 SLP178 P0019 T00280006





000
SAUS44 KMEG 050315
MTRTUP
SPECI KTUP 050314Z 02011KT 4SM -SN BR FEW008 OVC014 03/01 A3008 RMK
AO2 RAB0255E11SNB11 P0013 T00280011





000
SAUS44 KMEG 050315
MTRTUP
SPECI KTUP 050314Z 02011KT 4SM -SN BR FEW008 OVC014 03/01 A3008 RMK
AO2 RAB0255E11SNB11 P0013 T00280011





000
SAUS44 KMEG 050310
MTRTUP
SPECI KTUP 050309Z 03017KT 2 1/2SM RA BR OVC014 03/01 A3008 RMK AO2
RAB0255 P0012 T00280006





000
SAUS44 KMEG 050310
MTRTUP
SPECI KTUP 050309Z 03017KT 2 1/2SM RA BR OVC014 03/01 A3008 RMK AO2
RAB0255 P0012 T00280006





000
SAUS44 KMEG 050254
MTRTUP
METAR KTUP 050253Z 03018G24KT 10SM OVC013 03/01 A3006 RMK AO2 PK WND
04026/0221 RAB25E37 PRESRR SLP177 P0001 60001 T00330011 53021





000
SAUS44 KMEG 050154
MTRTUP
METAR KTUP 050153Z 04018KT 10SM OVC013 04/02 A3002 RMK AO2 SLP163
T00390017





000
SAUS44 KMEG 050154
MTRTUP
METAR KTUP 050153Z 04018KT 10SM OVC013 04/02 A3002 RMK AO2 SLP163
T00390017





000
SAUS44 KMEG 050054
MTRTUP
METAR KTUP 050053Z 04016G24KT 10SM OVC011 04/02 A3001 RMK AO2
RAE2359 SLP160 P0000 T00440022





000
SAUS44 KMEG 050054
MTRTUP
METAR KTUP 050053Z 04016G24KT 10SM OVC011 04/02 A3001 RMK AO2
RAE2359 SLP160 P0000 T00440022





000
SAUS44 KMEG 042354
MTRTUP
METAR KTUP 042353Z 03018G26KT 3SM +RA BR BKN008 OVC012 05/03 A2999
RMK AO2 PK WND 03028/2254 RAB2256E09B44 PRESRR SLP155 P0006 60045
T00500033 10239 20050 51047





000
SAUS44 KMEG 042354
MTRTUP
METAR KTUP 042353Z 03018G26KT 3SM +RA BR BKN008 OVC012 05/03 A2999
RMK AO2 PK WND 03028/2254 RAB2256E09B44 PRESRR SLP155 P0006 60045
T00500033 10239 20050 51047





000
SAUS44 KMEG 042347
MTRTUP
SPECI KTUP 042346Z 05019G26KT 3SM RA BR BKN006 OVC010 05/04 A2998
RMK AO2 PK WND 03028/2254 RAB2256E09B44 P0000 T00500039





000
SAUS44 KMEG 042347
MTRTUP
SPECI KTUP 042346Z 05019G26KT 3SM RA BR BKN006 OVC010 05/04 A2998
RMK AO2 PK WND 03028/2254 RAB2256E09B44 P0000 T00500039





000
SAUS44 KMEG 042254
MTRTUP
METAR KTUP 042253Z AUTO 03018G27KT 10SM OVC008 07/05 A2995 RMK AO2
PK WND 02027/2246 RAE26 CIG 006V010 SLP139 P0002 T00670050





000
SAUS44 KMEG 042209
MTRTUP
SPECI KTUP 042208Z AUTO 01017KT 6SM -RA BR BKN008 OVC012 09/07 A2992
RMK AO2 P0000 T00940072





000
SAUS44 KMEG 042209
MTRTUP
SPECI KTUP 042208Z AUTO 01017KT 6SM -RA BR BKN008 OVC012 09/07 A2992
RMK AO2 P0000 T00940072





000
SAUS44 KMEG 042154
MTRTUP
METAR KTUP 042153Z AUTO 02017G22KT 10SM -RA OVC010 11/08 A2990 RMK
AO2 RAB04E16B32 SLP124 P0004 T01060083





000
SAUS44 KMEG 042054
MTRTUP
METAR KTUP 042053Z AUTO 02013G20KT 10SM OVC006 13/11 A2985 RMK AO2
PK WND 33026/2011 SLP106 60033 T01280106 55003





000
SAUS44 KMEG 042039
MTRTUP
SPECI KTUP 042038Z 02015G23KT 10SM BKN007 BKN038 OVC100 13/11 A2984
RMK AO2 PK WND 33026/2011 CIG 006V023 T01330111





000
SAUS44 KMEG 042039
MTRTUP
SPECI KTUP 042038Z 02015G23KT 10SM BKN007 BKN038 OVC100 13/11 A2984
RMK AO2 PK WND 33026/2011 CIG 006V023 T01330111





000
SAUS44 KMEG 042032
MTRTUP
SPECI KTUP 042031Z 02018G23KT 10SM SCT007 BKN016 OVC049 14/13 A2985
RMK AO2 PK WND 33026/2011 CIG 013V023 T01440128





000
SAUS44 KMEG 042032
MTRTUP
SPECI KTUP 042031Z 02018G23KT 10SM SCT007 BKN016 OVC049 14/13 A2985
RMK AO2 PK WND 33026/2011 CIG 013V023 T01440128





000
SAUS44 KMEG 041954
MTRTUP
METAR KTUP 041953Z 30005KT 10SM FEW041 FEW055 24/19 A2980 RMK AO2
RAB06E28 SLP089 P0030 T02390194





000
SAUS44 KMEG 041954
MTRTUP
METAR KTUP 041953Z 30005KT 10SM FEW041 FEW055 24/19 A2980 RMK AO2
RAB06E28 SLP089 P0030 T02390194





000
SAUS44 KMEG 041928
MTRTUP
SPECI KTUP 041927Z 28006KT 10SM -RA FEW011 BKN033 OVC055 21/19 A2983
RMK AO2 RAB06 P0030 T02110194





000
SAUS44 KMEG 041921
MTRTUP
SPECI KTUP 041920Z 27007G14KT 2 1/2SM -RA BR FEW014 BKN035 OVC044
21/18 A2983 RMK AO2 VIS 1/2V5 RAB06 P0030 T02060183





000
SAUS44 KMEG 041918
MTRTUP
SPECI KTUP 041916Z 26008G14KT 1/2SM -RA FG SCT014 OVC033 21/18 A2983
RMK AO2 RAB06 P0029 T02060183





000
SAUS44 KMEG 041854
MTRTUP
METAR KTUP 041853Z 00000KT 10SM FEW033 BKN055 OVC080 22/19 A2983 RMK
AO2 RAB17E30 SLP097 P0003 T02220189





000
SAUS44 KMEG 041854
MTRTUP
METAR KTUP 041853Z 00000KT 10SM FEW033 BKN055 OVC080 22/19 A2983 RMK
AO2 RAB17E30 SLP097 P0003 T02220189





000
SAUS44 KMEG 041754
MTRTUP
METAR KTUP 041753Z 25004KT 10SM BKN030 OVC038 21/18 A2986 RMK AO2
RAB1657E09B32E52 SLP109 P0004 60016 T02060183 10206 20178 56024





000
SAUS44 KMEG 041754
MTRTUP
METAR KTUP 041753Z 25004KT 10SM BKN030 OVC038 21/18 A2986 RMK AO2
RAB1657E09B32E52 SLP109 P0004 60016 T02060183 10206 20178 56024





000
SAUS44 KMEG 041745
MTRTUP
SPECI KTUP 041744Z 24004KT 3SM -RA BR FEW027 BKN034 OVC047 21/18
A2986 RMK AO2 RAB1657E09B32 P0004 T02060183





000
SAUS44 KMEG 041745
MTRTUP
SPECI KTUP 041744Z 24004KT 3SM -RA BR FEW027 BKN034 OVC047 21/18
A2986 RMK AO2 RAB1657E09B32 P0004 T02060183





000
SAUS44 KMEG 041738
MTRTUP
SPECI KTUP 041737Z 23006KT 2 1/2SM -RA BR BKN029 BKN037 OVC047 21/18
A2987 RMK AO2 VIS 1 1/4V5 RAB1657E09B32 P0001 T02060183





000
SAUS44 KMEG 041738
MTRTUP
SPECI KTUP 041737Z 23006KT 2 1/2SM -RA BR BKN029 BKN037 OVC047 21/18
A2987 RMK AO2 VIS 1 1/4V5 RAB1657E09B32 P0001 T02060183





000
SAUS44 KMEG 041654
MTRTUP
METAR KTUP 041653Z 21009KT 10SM SCT021 BKN027 OVC031 20/18 A2988 RMK
AO2 RAE22 SLP117 P0003 T02000183





000
SAUS44 KMEG 041654
MTRTUP
METAR KTUP 041653Z 21009KT 10SM SCT021 BKN027 OVC031 20/18 A2988 RMK
AO2 RAE22 SLP117 P0003 T02000183





000
SAUS44 KMEG 041635
MTRTUP
SPECI KTUP 041634Z 20009KT 8SM SCT009 BKN022 OVC030 19/18 A2989 RMK
AO2 RAE22 P0003 T01940178





000
SAUS44 KMEG 041554
MTRTUP
METAR KTUP 041553Z 21011KT 3SM RA BR BKN007 OVC012 19/18 A2991 RMK
AO2 RAE05B51 SLP126 P0001 T01940178





000
SAUS44 KMEG 041554
MTRTUP
METAR KTUP 041553Z 21011KT 3SM RA BR BKN007 OVC012 19/18 A2991 RMK
AO2 RAE05B51 SLP126 P0001 T01940178





000
SAUS44 KMEG 041459
MTRTUP
SPECI KTUP 041458Z 20007KT 3SM -RA BR BKN008 BKN017 OVC022 19/17
A2993 RMK AO2 P0000 T01890172





000
SAUS44 KMEG 041454
MTRTUP
METAR KTUP 041453Z 20007KT 1 1/2SM RA BR SCT008 BKN019 OVC027 19/17
A2993 RMK AO2 RAB40 SLP134 P0008 60008 T01890172 51005





000
SAUS44 KMEG 041454
MTRTUP
METAR KTUP 041453Z 20007KT 1 1/2SM RA BR SCT008 BKN019 OVC027 19/17
A2993 RMK AO2 RAB40 SLP134 P0008 60008 T01890172 51005





000
SAUS44 KMEG 041447
MTRTUP
SPECI KTUP 041446Z 21009KT 1 3/4SM RA BR FEW008 BKN015 OVC027 19/17
A2994 RMK AO2 VIS 3/4V5 RAB40 P0003 T01890172





000
SAUS44 KMEG 041447
MTRTUP
SPECI KTUP 041446Z 21009KT 1 3/4SM RA BR FEW008 BKN015 OVC027 19/17
A2994 RMK AO2 VIS 3/4V5 RAB40 P0003 T01890172





000
SAUS44 KMEG 041423
MTRTUP
SPECI KTUP 041421Z 21009KT 9SM SCT006 OVC018 19/17 A2993 RMK AO2
T01890172





000
SAUS44 KMEG 041354
MTRTUP
METAR KTUP 041353Z 21009KT 3SM BR BKN006 OVC013 18/17 A2993 RMK AO2
CIG 004V008 SLP132 T01830172





000
SAUS44 KMEG 041354
MTRTUP
METAR KTUP 041353Z 21009KT 3SM BR BKN006 OVC013 18/17 A2993 RMK AO2
CIG 004V008 SLP132 T01830172





000
SAUS44 KMEG 041321
MTRTUP
SPECI KTUP 041320Z 21008KT 6SM BR FEW006 BKN015 OVC024 18/17 A2993
RMK AO2 T01830167





000
SAUS44 KMEG 041254
MTRTUP
METAR KTUP 041253Z 21008KT 6SM BR SCT012 BKN017 OVC025 18/17 A2993
RMK AO2 RAB34E45 SLP132 P0000 T01780167





000
SAUS44 KMEG 041228
MTRTUP
SPECI KTUP 041227Z 21009KT 7SM BKN016 OVC021 18/17 A2993 RMK AO2
T01780167





000
SAUS44 KMEG 041228
MTRTUP
SPECI KTUP 041227Z 21009KT 7SM BKN016 OVC021 18/17 A2993 RMK AO2
T01780167





000
SAUS44 KMEG 041216
MTRTUP
SPECI KTUP 041215Z 21008KT 8SM BKN014 BKN023 OVC034 18/17 A2993 RMK
AO2 T01830167





000
SAUS44 KMEG 041154
MTRTUP
METAR KTUP 041153Z 22008KT 9SM FEW016 BKN036 OVC044 18/17 A2992 RMK
AO2 SLP129 60004 70009 T01830167 10194 20183 53004





000
SAUS44 KMEG 041154
MTRTUP
METAR KTUP 041153Z 22008KT 9SM FEW016 BKN036 OVC044 18/17 A2992 RMK
AO2 SLP129 60004 70009 T01830167 10194 20183 53004





000
SAUS44 KMEG 041054
MTRTUP
METAR KTUP 041053Z AUTO 22007KT 10SM BKN015 BKN022 OVC027 18/17
A2991 RMK AO2 RAB19E49 SLP125 P0003 T01830172





000
SAUS44 KMEG 041049
MTRTUP
SPECI KTUP 041048Z AUTO 22009KT 10SM -RA FEW009 BKN013 OVC021 18/17
A2991 RMK AO2 RAB19 P0003





000
SAUS44 KMEG 041023
MTRTUP
SPECI KTUP 041022Z AUTO 22009KT 6SM -RA BR BKN015 BKN027 OVC043
19/17 A2991 RMK AO2 RAB19 P0002 T01890172





000
SAUS44 KMEG 041023
MTRTUP
SPECI KTUP 041022Z AUTO 22009KT 6SM -RA BR BKN015 BKN027 OVC043
19/17 A2991 RMK AO2 RAB19 P0002 T01890172





000
SAUS44 KMEG 040954
MTRTUP
METAR KTUP 040953Z AUTO 22010KT 10SM BKN012 BKN017 OVC022 19/17
A2990 RMK AO2 SLP122 T01890172





000
SAUS44 KMEG 040944
MTRTUP
SPECI KTUP 040943Z AUTO 22010KT 10SM SCT011 BKN016 OVC022 19/17
A2990 RMK AO2 T01890172





000
SAUS44 KMEG 040923
MTRTUP
SPECI KTUP 040921Z AUTO 23010KT 10SM FEW008 BKN014 OVC023 19/17
A2990 RMK AO2 T01890172





000
SAUS44 KMEG 040914
MTRTUP
SPECI KTUP 040913Z AUTO 22010KT 10SM BKN011 OVC018 19/17 A2990 RMK
AO2 T01940172





000
SAUS44 KMEG 040914
MTRTUP
SPECI KTUP 040913Z AUTO 22010KT 10SM BKN011 OVC018 19/17 A2990 RMK
AO2 T01940172





000
SAUS44 KMEG 040854
MTRTUP
METAR KTUP 040853Z AUTO 24008KT 10SM FEW007 BKN016 OVC020 19/17
A2991 RMK AO2 SLP125 60001 T01890172 56008





000
SAUS44 KMEG 040847
MTRTUP
SPECI KTUP 040846Z AUTO 22009KT 10SM SCT008 BKN012 OVC019 19/17
A2991 RMK AO2 T01890172





000
SAUS44 KMEG 040847
MTRTUP
SPECI KTUP 040846Z AUTO 22009KT 10SM SCT008 BKN012 OVC019 19/17
A2991 RMK AO2 T01890172





000
SAUS44 KMEG 040832
MTRTUP
SPECI KTUP 040831Z AUTO 22008KT 10SM BKN008 BKN012 OVC019 19/17
A2991 RMK AO2 CIG 005V010 T01890172





000
SAUS44 KMEG 040832
MTRTUP
SPECI KTUP 040831Z AUTO 22008KT 10SM BKN008 BKN012 OVC019 19/17
A2991 RMK AO2 CIG 005V010 T01890172





000
SAUS44 KMEG 040811
MTRTUP
SPECI KTUP 040810Z AUTO 21010KT 10SM BKN010 OVC016 19/17 A2991 RMK
AO2 CIG 006V014 T01890172





000
SAUS44 KMEG 040754
MTRTUP
METAR KTUP 040753Z AUTO 21009KT 10SM BKN008 OVC013 18/17 A2991 RMK
AO2 CIG 006V011 SLP127 T01830172





000
SAUS44 KMEG 040654
MTRTUP
METAR KTUP 040653Z AUTO 22008KT 10SM OVC008 18/17 A2993 RMK AO2
RAB0557E07 CIG 006V012 SLP132 P0001 T01830172





000
SAUS44 KMEG 040654
MTRTUP
METAR KTUP 040653Z AUTO 22008KT 10SM OVC008 18/17 A2993 RMK AO2
RAB0557E07 CIG 006V012 SLP132 P0001 T01830172





000
SAUS44 KMEG 040554
MTRTUP
METAR KTUP 040553Z AUTO 23009KT 8SM OVC005 18/17 A2993 RMK AO2
RAB22E42 SLP134 P0002 60004 T01830172 10189 20161 401890067 58007





000
SAUS44 KMEG 040554
MTRTUP
METAR KTUP 040553Z AUTO 23009KT 8SM OVC005 18/17 A2993 RMK AO2
RAB22E42 SLP134 P0002 60004 T01830172 10189 20161 401890067 58007





000
SAUS44 KMEG 040454
MTRTUP
METAR KTUP 040453Z 21008KT 7SM OVC006 18/17 A2994 RMK AO2 SLP137
T01830172





000
SAUS44 KMEG 040454
MTRTUP
METAR KTUP 040453Z 21008KT 7SM OVC006 18/17 A2994 RMK AO2 SLP137
T01830172





000
SAUS44 KMEG 040354
MTRTUP
METAR KTUP 040353Z 21009KT 8SM BKN007 BKN018 OVC027 19/17 A2995 RMK
AO2 CIG 006V011 SLP142 T01890172





000
SAUS44 KMEG 040354
MTRTUP
METAR KTUP 040353Z 21009KT 8SM BKN007 BKN018 OVC027 19/17 A2995 RMK
AO2 CIG 006V011 SLP142 T01890172





000
SAUS44 KMEG 040254
MTRTUP
METAR KTUP 040253Z 22008KT 9SM FEW009 BKN025 OVC034 18/17 A2995 RMK
AO2 SLP141 P0001 60002 T01830172 51006





000
SAUS44 KMEG 040251
MTRTUP
SPECI KTUP 040250Z 21008KT 9SM FEW009 BKN025 OVC034 18/17 A2995 RMK
AO2 P0001





000
SAUS44 KMEG 040238
MTRTUP
SPECI KTUP 040237Z 21009KT 10SM FEW009 BKN031 OVC040 18/17 A2995 RMK
AO2 P0001 T01830172





000
SAUS44 KMEG 040238
MTRTUP
SPECI KTUP 040237Z 21009KT 10SM FEW009 BKN031 OVC040 18/17 A2995 RMK
AO2 P0001 T01830172





000
SAUS44 KMEG 040227
MTRTUP
SPECI KTUP 040225Z 22005KT 10SM SCT016 BKN028 OVC042 18/17 A2995 RMK
AO2 P0001 T01830172





000
SAUS44 KMEG 040227
MTRTUP
SPECI KTUP 040225Z 22005KT 10SM SCT016 BKN028 OVC042 18/17 A2995 RMK
AO2 P0001 T01830172





000
SAUS44 KMEG 040154
MTRTUP
METAR KTUP 040153Z 21006KT 8SM BKN032 BKN043 OVC060 18/17 A2995 RMK
AO2 RAB08E19B26E46 SLP139 P0001 T01780167





000
SAUS44 KMEG 040154
MTRTUP
METAR KTUP 040153Z 21006KT 8SM BKN032 BKN043 OVC060 18/17 A2995 RMK
AO2 RAB08E19B26E46 SLP139 P0001 T01780167





    US Dept of Commerce
    National Oceanic and Atmospheric Administration
    National Weather Service
    1325 East West Highway
    Silver Spring, MD 20910
    Page Author: NWS Internet Services Team
Disclaimer
Information Quality
Credits
Glossary
Privacy Policy
Freedom of Information Act (FOIA)
About Us
Career Opportunities